Time;durP1;ratioP1;P1;durP2;ratioP2;P2;SDS_P1;SDS_P2;PMS_P1;PMS_P2;Temp;Humidity;BMP_temperature;BMP_pressure;BME280_temperature;BME280_humidity;BME280_pressure;Samples;Min_cycle;Max_cycle;Signal;HPM_P1;HPM_P2
2022/06/03 00:00:51;;;;;;;9.30;7.00;;;;;;;15.79;87.03;99841.66;108613;1281;23643;-58
2022/06/03 00:03:24;;;;;;;8.20;6.70;;;;;;;15.73;87.31;99841.86;109075;1274;22413;-58
2022/06/03 00:06:00;;;;;;;10.20;7.50;;;;;;;15.69;87.46;99848.15;109246;1274;140273;-59
2022/06/03 00:08:51;;;;;;;10.00;7.10;;;;;;;15.64;87.62;99845.59;109436;1273;23174;-59
2022/06/03 00:11:18;;;;;;;9.80;6.70;;;;;;;15.59;87.70;99855.02;109181;1274;138155;-59
2022/06/03 00:14:00;;;;;;;10.50;6.90;;;;;;;15.54;87.82;99858.44;109363;1274;22586;-59
2022/06/03 00:16:34;;;;;;;8.40;7.40;;;;;;;15.51;88.01;99857.16;106892;1274;138633;-58
2022/06/03 00:19:19;;;;;;;11.30;8.20;;;;;;;15.46;88.02;99861.41;109299;1275;22504;-59
2022/06/03 00:21:46;;;;;;;9.30;7.30;;;;;;;15.41;88.17;99863.64;109441;1274;22470;-59
2022/06/03 00:24:28;;;;;;;11.10;8.10;;;;;;;15.37;88.23;99865.14;109395;1274;139362;-59
2022/06/03 00:27:07;;;;;;;9.20;7.40;;;;;;;15.34;88.29;99870.09;109284;1275;22597;-59
2022/06/03 00:29:34;;;;;;;10.00;7.90;;;;;;;15.30;88.38;99871.58;109109;1274;139911;-59
2022/06/03 00:32:08;;;;;;;9.00;7.70;;;;;;;15.27;88.47;99876.23;109239;1274;23369;-59
2022/06/03 00:34:56;;;;;;;9.80;7.90;;;;;;;15.24;88.52;99879.52;109154;1274;139024;-59
2022/06/03 00:37:46;;;;;;;11.50;8.10;;;;;;;15.20;88.58;99876.02;109305;1274;22509;-58
2022/06/03 00:40:38;;;;;;;10.80;8.00;;;;;;;15.15;88.75;99870.26;109265;1274;138432;-58
2022/06/03 00:43:27;;;;;;;9.40;8.00;;;;;;;15.12;88.91;99874.85;109334;1274;22477;-59
2022/06/03 00:46:22;;;;;;;10.90;8.20;;;;;;;15.10;89.10;99881.98;109500;1274;22399;-58
2022/06/03 00:48:52;;;;;;;8.70;7.80;;;;;;;15.09;89.24;99884.67;109348;1274;22585;-58
2022/06/03 00:51:48;;;;;;;8.90;8.00;;;;;;;15.09;89.30;99890.11;109442;1274;22449;-59
2022/06/03 00:54:29;;;;;;;11.60;8.00;;;;;;;15.09;89.32;99897.57;109230;1274;138522;-58
2022/06/03 00:57:04;;;;;;;10.20;7.80;;;;;;;15.10;89.37;99896.91;109315;1274;22402;-58
2022/06/03 01:00:03;;;;;;;11.10;8.30;;;;;;;15.11;89.36;99897.19;109176;1276;139156;-58
2022/06/03 01:02:48;;;;;;;12.80;8.80;;;;;;;15.11;89.25;99899.83;109332;1274;22432;-58
2022/06/03 01:05:38;;;;;;;10.40;9.20;;;;;;;15.09;89.33;99905.98;109217;1274;138328;-58
2022/06/03 01:08:24;;;;;;;12.20;9.10;;;;;;;15.06;89.20;99908.49;109229;1273;22634;-59
2022/06/03 01:11:23;;;;;;;11.90;8.10;;;;;;;15.04;89.25;99917.83;109441;1273;140149;-58
2022/06/03 01:14:02;;;;;;;10.60;7.90;;;;;;;15.05;89.27;99923.15;109334;1274;22442;-59
2022/06/03 01:16:45;;;;;;;9.70;8.60;;;;;;;15.05;89.27;99926.73;109320;1274;140077;-58
2022/06/03 01:19:40;;;;;;;11.50;10.30;;;;;;;15.03;88.93;99931.83;109438;1274;23560;-58
2022/06/03 01:22:14;;;;;;;11.40;9.60;;;;;;;15.01;88.78;99932.92;109204;1274;140043;-58
2022/06/03 01:24:47;;;;;;;10.50;9.40;;;;;;;15.00;88.91;99930.76;109253;1274;23335;-58
2022/06/03 01:42:36;;;;;;;9.20;8.30;;;;;;;15.14;87.17;99933.73;101291;1312;558019;-59
2022/06/03 01:45:25;;;;;;;12.20;8.50;;;;;;;15.08;86.54;99941.42;103623;1286;257678;-58
2022/06/03 01:48:16;;;;;;;12.80;8.90;;;;;;;15.00;86.81;99952.02;103905;1286;138386;-59
2022/06/03 01:50:54;;;;;;;13.40;8.20;;;;;;;14.95;87.09;99955.99;103912;1287;22710;-59
2022/06/03 01:53:33;;;;;;;9.30;8.30;;;;;;;14.89;87.16;99965.27;103805;1286;138495;-59
2022/06/03 01:56:31;;;;;;;10.70;8.70;;;;;;;14.84;87.08;99970.21;103943;1286;25504;-58
2022/06/03 01:59:07;;;;;;;10.70;9.60;;;;;;;14.77;87.29;99977.07;103879;1286;139675;-58
2022/06/03 02:01:52;;;;;;;9.80;8.80;;;;;;;14.70;87.36;99980.25;103975;1286;23436;-58
2022/06/03 02:04:57;;;;;;;13.40;9.20;;;;;;;14.62;87.70;99984.30;103740;1288;140882;-59
2022/06/03 02:07:58;;;;;;;9.90;7.90;;;;;;;14.56;88.00;99979.98;104003;1286;22571;-58
2022/06/03 02:10:44;;;;;;;10.40;8.50;;;;;;;14.52;88.10;99984.02;103877;1286;137692;-58
2022/06/03 02:13:17;;;;;;;10.30;8.90;;;;;;;14.49;88.27;99982.87;104060;1288;25888;-58
2022/06/03 02:15:57;;;;;;;13.60;9.40;;;;;;;14.45;88.32;99982.20;104074;1286;25284;-58
2022/06/03 02:19:19;;;;;;;9.80;7.90;;;;;;;14.42;88.40;99979.84;108082;1285;140114;-59
2022/06/03 02:21:52;;;;;;;11.20;7.70;;;;;;;14.39;88.07;99975.21;107504;1292;23152;-59
2022/06/03 02:24:27;;;;;;;11.90;8.00;;;;;;;14.33;88.32;99974.08;107034;1293;138613;-59
2022/06/03 02:26:54;;;;;;;12.10;7.40;;;;;;;14.29;88.17;99968.65;104308;1292;22560;-58
2022/06/03 02:32:52;;;;;;;11.50;7.30;;;;;;;14.26;88.33;99977.05;103275;1292;24151;-58
2022/06/03 02:35:41;;;;;;;10.40;7.20;;;;;;;14.21;88.30;99980.70;107308;1294;138604;-59
2022/06/03 02:38:11;;;;;;;11.30;7.70;;;;;;;14.20;88.23;99984.26;107502;1292;23198;-59
2022/06/03 02:41:16;;;;;;;9.00;6.40;;;;;;;14.18;88.09;99988.36;107226;1294;139571;-59
2022/06/03 02:43:47;;;;;;;9.60;6.70;;;;;;;14.12;87.56;99992.09;106925;1299;22315;-59
2022/06/03 02:46:36;;;;;;;9.20;6.90;;;;;;;14.08;87.36;99986.20;106856;1298;138000;-59
2022/06/03 02:49:22;;;;;;;10.20;7.20;;;;;;;14.04;87.53;99993.75;106967;1298;22665;-59
2022/06/03 02:52:04;;;;;;;8.30;7.20;;;;;;;14.00;87.65;100000.31;106957;1297;22495;-59
2022/06/03 02:55:10;;;;;;;8.70;7.20;;;;;;;13.97;87.82;100003.45;106924;1296;138303;-59
2022/06/03 02:57:49;;;;;;;8.90;7.20;;;;;;;13.97;87.88;100005.63;107298;1293;22463;-60
2022/06/03 03:00:36;;;;;;;10.10;7.30;;;;;;;13.98;88.01;100014.08;107192;1293;138356;-60
2022/06/03 03:03:06;;;;;;;;;;;;;;;13.96;87.80;100012.97;107522;1292;22602;-60
2022/06/03 03:06:10;;;;;;;9.30;7.10;;;;;;;13.94;87.86;100023.15;107292;1292;126448;-61
2022/06/03 03:08:43;;;;;;;8.00;6.70;;;;;;;13.93;88.18;100025.55;107273;1293;22825;-60
2022/06/03 03:11:48;;;;;;;8.30;6.70;;;;;;;13.96;88.28;100032.69;107252;1292;138568;-61
2022/06/03 03:14:30;;;;;;;11.30;6.00;;;;;;;13.99;88.23;100030.23;107250;1292;22474;-61
2022/06/03 03:17:21;;;;;;;7.00;6.00;;;;;;;13.99;88.09;100035.51;107092;1293;139205;-61
2022/06/03 03:20:08;;;;;;;7.80;6.30;;;;;;;13.99;87.99;100038.13;107466;1292;22473;-61
2022/06/03 03:22:49;;;;;;;8.00;5.90;;;;;;;13.97;87.58;100041.90;108137;1286;139337;-61
2022/06/03 03:25:45;;;;;;;6.90;5.80;;;;;;;13.95;87.35;100044.85;108172;1286;22607;-61
2022/06/03 03:28:30;;;;;;;11.20;5.50;;;;;;;13.94;86.79;100051.75;107291;1292;138168;-61
2022/06/03 03:31:27;;;;;;;8.50;5.20;;;;;;;13.89;86.70;100051.23;107610;1292;22543;-61
2022/06/03 03:34:09;;;;;;;6.20;5.50;;;;;;;13.84;86.41;100052.52;107413;1291;22538;-61
2022/06/03 03:36:58;;;;;;;6.40;5.40;;;;;;;13.76;86.41;100056.09;107567;1291;23582;-60
2022/06/03 03:39:40;;;;;;;5.40;4.60;;;;;;;13.72;86.77;100065.38;107501;1291;23589;-60
2022/06/03 03:42:25;;;;;;;7.40;4.90;;;;;;;13.68;86.68;100068.44;107489;1292;139691;-61
2022/06/03 03:45:16;;;;;;;5.50;4.10;;;;;;;13.65;86.60;100075.91;107430;1292;22688;-60
2022/06/03 03:48:01;;;;;;;6.60;4.60;;;;;;;13.59;86.53;100075.05;107477;1292;138879;-60
2022/06/03 03:50:48;;;;;;;5.30;4.00;;;;;;;13.55;86.62;100083.35;107577;1291;22387;-60
2022/06/03 03:53:43;;;;;;;6.40;4.70;;;;;;;13.51;86.78;100091.31;107309;1292;137970;-60
2022/06/03 03:56:18;;;;;;;6.90;5.20;;;;;;;13.47;86.60;100100.36;107468;1292;22557;-60
2022/06/03 03:59:03;;;;;;;5.00;4.40;;;;;;;13.44;86.57;100104.45;107502;1290;139921;-59
2022/06/03 04:02:15;;;;;;;5.80;4.90;;;;;;;13.41;86.72;100111.57;107647;1291;22661;-60
2022/06/03 04:05:03;;;;;;;9.30;4.70;;;;;;;13.40;86.85;100110.67;106973;1292;139627;-60
2022/06/03 04:07:33;;;;;;;7.10;4.40;;;;;;;13.42;86.84;100120.97;107271;1293;22546;-60
2022/06/03 04:10:18;;;;;;;4.90;4.30;;;;;;;13.42;86.74;100121.30;107280;1294;23250;-60
2022/06/03 04:13:03;;;;;;;4.70;4.30;;;;;;;13.40;86.42;100116.48;107306;1292;22671;-61
2022/06/03 04:16:07;;;;;;;8.30;4.60;;;;;;;13.39;86.37;100119.21;107270;1294;22643;-61
2022/06/03 04:18:59;;;;;;;7.70;5.70;;;;;;;13.41;86.54;100121.20;107136;1293;138135;-60
2022/06/03 04:21:32;;;;;;;6.50;5.50;;;;;;;13.42;86.40;100121.64;107279;1292;22536;-60
2022/06/03 04:24:26;;;;;;;6.50;4.70;;;;;;;13.44;86.37;100116.59;107169;1292;138982;-61
2022/06/03 04:26:58;;;;;;;5.50;4.70;;;;;;;13.48;86.61;100118.45;107283;1293;22575;-60
2022/06/03 04:29:51;;;;;;;4.80;3.90;;;;;;;13.52;86.69;100122.97;107041;1292;140701;-61
2022/06/03 04:32:24;;;;;;;4.60;4.20;;;;;;;13.55;86.34;100129.02;107320;1293;22351;-61
2022/06/03 04:35:19;;;;;;;5.20;4.50;;;;;;;13.59;86.19;100135.33;107220;1292;138438;-60
2022/06/03 04:38:14;;;;;;;5.20;4.00;;;;;;;13.65;86.14;100136.48;107097;1292;23328;-60
2022/06/03 04:41:02;;;;;;;5.90;4.10;;;;;;;13.73;86.14;100139.98;107294;1286;138540;-61
2022/06/03 04:43:52;;;;;;;5.50;4.00;;;;;;;13.83;86.22;100134.90;108180;1286;22574;-60
2022/06/03 04:46:40;;;;;;;5.90;4.00;;;;;;;13.96;85.63;100141.40;107788;1286;138751;-60
2022/06/03 04:49:07;;;;;;;11.00;7.70;;;;;;;14.02;84.90;100148.83;108204;1286;22472;-64
2022/06/03 04:51:52;;;;;;;5.80;4.10;;;;;;;14.04;84.24;100147.63;108181;1286;23226;-61
2022/06/03 04:54:42;;;;;;;4.10;3.70;;;;;;;14.04;83.93;100153.16;108059;1286;139119;-60
2022/06/03 04:57:49;;;;;;;3.90;3.10;;;;;;;14.06;83.50;100153.13;104554;1286;22735;-60
2022/06/03 05:00:43;;;;;;;9.30;4.10;;;;;;;14.09;82.89;100153.09;103784;1286;138988;-61
2022/06/03 05:03:49;;;;;;;4.40;4.00;;;;;;;14.18;83.41;100149.39;103911;1286;22808;-62
2022/06/03 05:06:49;;;;;;;4.80;4.10;;;;;;;14.34;83.27;100156.52;104497;1279;138847;-60
2022/06/03 05:10:03;;;;;;;4.00;3.70;;;;;;;14.52;82.34;100166.05;104691;1277;25070;-59
2022/06/03 05:12:54;;;;;;;4.10;3.50;;;;;;;14.66;80.87;100165.66;104463;1279;138059;-61
2022/06/03 05:16:12;;;;;;;4.10;3.00;;;;;;;14.75;80.27;100171.66;104602;1279;24404;-61
2022/06/03 05:19:13;;;;;;;3.40;3.00;;;;;;;15.04;79.29;100173.61;108419;1283;22700;-59
2022/06/03 05:21:53;;;;;;;4.90;3.10;;;;;;;15.35;77.43;100180.02;107925;1288;22454;-60
2022/06/03 05:24:23;;;;;;;5.10;3.00;;;;;;;15.60;75.42;100185.50;107569;1288;138595;-60
2022/06/03 05:26:55;;;;;;;4.00;2.50;;;;;;;15.77;74.07;100188.41;107640;1290;22659;-60
2022/06/03 05:29:40;;;;;;;5.80;2.90;;;;;;;15.95;73.88;100188.48;107549;1289;138225;-60
2022/06/03 05:32:35;;;;;;;2.50;2.30;;;;;;;16.25;72.76;100192.45;107829;1288;22466;-60
2022/06/03 05:35:09;;;;;;;6.20;2.90;;;;;;;16.62;71.59;100187.83;107722;1288;137763;-61
2022/06/03 05:37:38;;;;;;;7.90;2.50;;;;;;;16.92;69.41;100188.64;107691;1288;22475;-60
2022/06/03 05:40:27;;;;;;;5.30;2.30;;;;;;;17.13;68.73;100192.91;107875;1287;22535;-60
2022/06/03 05:43:12;;;;;;;2.40;2.20;;;;;;;17.46;67.25;100192.25;107747;1288;22492;-60
2022/06/03 05:46:02;;;;;;;5.60;2.50;;;;;;;17.76;66.13;100196.73;107831;1288;22414;-60
2022/06/03 05:48:41;;;;;;;3.50;2.60;;;;;;;17.94;65.38;100192.98;107609;1288;137383;-60
2022/06/03 05:51:17;;;;;;;3.10;2.50;;;;;;;18.10;65.20;100203.53;107894;1288;22489;-60
2022/06/03 05:53:49;;;;;;;3.80;2.50;;;;;;;18.25;63.78;100203.04;107800;1284;138621;-61
2022/06/03 05:56:42;;;;;;;3.90;3.10;;;;;;;18.25;63.86;100208.71;108424;1284;23466;-61
2022/06/03 05:59:29;;;;;;;4.80;2.80;;;;;;;18.16;61.95;100203.63;108102;1284;137676;-61
2022/06/03 06:02:29;;;;;;;4.40;3.10;;;;;;;17.87;62.15;100208.91;108402;1284;22625;-62
2022/06/03 06:05:11;;;;;;;4.70;3.00;;;;;;;17.60;62.29;100213.87;108299;1284;138362;-61
2022/06/03 06:07:41;;;;;;;5.80;2.80;;;;;;;17.51;62.95;100209.29;108325;1283;23291;-62
2022/06/03 06:10:14;;;;;;;2.90;1.90;;;;;;;17.52;62.97;100210.66;108354;1284;22503;-61
2022/06/03 06:12:55;;;;;;;5.50;2.30;;;;;;;17.52;62.69;100215.23;108402;1284;22403;-61
2022/06/03 06:15:50;;;;;;;3.40;1.90;;;;;;;17.46;62.31;100210.15;108398;1284;22467;-61
2022/06/03 06:18:44;;;;;;;2.20;2.00;;;;;;;17.40;61.57;100210.05;108124;1284;138083;-61
2022/06/03 06:21:21;;;;;;;4.10;2.60;;;;;;;17.27;62.05;100209.52;108290;1284;22478;-61
2022/06/03 06:23:55;;;;;;;2.60;2.10;;;;;;;17.15;62.76;100216.64;108207;1284;139026;-61
2022/06/03 06:27:08;;;;;;;4.90;3.00;;;;;;;16.98;62.82;100221.70;108207;1284;22508;-61
2022/06/03 06:30:05;;;;;;;7.00;2.20;;;;;;;16.74;63.56;100211.95;108225;1284;137776;-62
2022/06/03 06:32:38;;;;;;;4.40;2.80;;;;;;;16.60;64.67;100208.00;108383;1284;22432;-62
2022/06/03 06:35:33;;;;;;;2.90;2.30;;;;;;;16.58;65.08;100209.63;108259;1284;138687;-62
2022/06/03 06:38:17;;;;;;;5.30;2.20;;;;;;;16.60;65.13;100208.13;108743;1281;22482;-62
2022/06/03 06:40:59;;;;;;;2.50;2.30;;;;;;;16.65;63.56;100205.70;108581;1279;138362;-62
2022/06/03 06:43:42;;;;;;;2.60;2.00;;;;;;;16.71;63.09;100206.70;108982;1279;22457;-62
2022/06/03 06:46:14;;;;;;;4.00;1.90;;;;;;;16.76;60.82;100209.52;108814;1279;22477;-62
2022/06/03 06:49:05;;;;;;;2.70;1.40;;;;;;;16.78;60.34;100208.35;108983;1278;23472;-61
2022/06/03 06:51:49;;;;;;;5.40;3.00;;;;;;;16.79;60.09;100213.52;108962;1278;22576;-62
2022/06/03 06:54:31;;;;;;;1.60;1.50;;;;;;;16.82;59.93;100215.55;108959;1278;140241;-61
2022/06/03 06:57:26;;;;;;;2.60;1.50;;;;;;;16.86;60.23;100212.36;109038;1279;22514;-61
2022/06/03 06:59:59;;;;;;;3.00;1.80;;;;;;;16.90;59.72;100211.42;108813;1279;137631;-61
2022/06/03 07:02:43;;;;;;;3.60;1.70;;;;;;;16.93;60.03;100208.00;109044;1278;22470;-61
2022/06/03 07:05:31;;;;;;;2.20;1.80;;;;;;;16.99;60.46;100213.98;108879;1279;139224;-61
2022/06/03 07:08:09;;;;;;;2.70;2.00;;;;;;;17.02;59.94;100211.45;108959;1278;23206;-61
2022/06/03 07:10:43;;;;;;;4.50;2.10;;;;;;;17.04;59.80;100218.08;108804;1279;139301;-61
2022/06/03 07:13:10;;;;;;;5.10;1.90;;;;;;;17.09;60.20;100219.83;108962;1279;22473;-61
2022/06/03 07:15:59;;;;;;;4.20;1.80;;;;;;;17.15;59.84;100226.88;108971;1279;23208;-62
2022/06/03 07:22:13;;;;;;;3.60;1.90;;;;;;;17.23;58.75;100222.49;108772;1279;23091;-62
2022/06/03 07:25:05;;;;;;;3.40;2.00;;;;;;;17.29;59.11;100229.29;109047;1278;22460;-62
2022/06/03 07:27:55;;;;;;;4.80;2.10;;;;;;;17.39;59.89;100229.44;109034;1277;23031;-62
2022/06/03 07:30:29;;;;;;;2.00;1.70;;;;;;;17.52;59.59;100227.92;108875;1279;137413;-62
2022/06/03 07:32:59;;;;;;;3.30;1.60;;;;;;;17.60;59.09;100225.11;108869;1279;23368;-62
2022/06/03 07:35:41;;;;;;;2.90;1.80;;;;;;;17.65;58.54;100225.48;108824;1279;138252;-62
2022/06/03 07:38:28;;;;;;;2.90;1.80;;;;;;;17.67;57.27;100224.36;108833;1279;23276;-62
2022/06/03 07:41:16;;;;;;;2.00;1.60;;;;;;;17.70;57.51;100223.85;108971;1277;139232;-62
2022/06/03 07:43:55;;;;;;;4.10;1.60;;;;;;;17.72;55.68;100226.27;108821;1279;22434;-62
2022/06/03 07:46:38;;;;;;;4.00;1.90;;;;;;;17.71;56.13;100221.25;108920;1278;137473;-62
2022/06/03 07:49:04;;;;;;;3.60;1.70;;;;;;;17.71;56.61;100213.15;108848;1278;22464;-62
2022/06/03 07:51:36;;;;;;;3.80;2.00;;;;;;;17.75;56.90;100217.68;109048;1279;23356;-62
2022/06/03 07:54:18;;;;;;;2.70;2.00;;;;;;;17.80;57.48;100214.27;108646;1279;139286;-62
2022/06/03 07:56:45;;;;;;;2.10;1.60;;;;;;;17.87;56.67;100217.65;109084;1278;23098;-62
2022/06/03 07:59:19;;;;;;;6.60;2.10;;;;;;;17.90;56.58;100214.78;108824;1279;138304;-62
2022/06/03 08:01:58;;;;;;;4.60;2.10;;;;;;;17.93;56.80;100212.71;108988;1279;22443;-63
2022/06/03 08:04:30;;;;;;;2.50;1.90;;;;;;;18.00;57.65;100214.21;108909;1278;138137;-62
2022/06/03 08:12:31;;;;;;;2.70;1.90;;;;;;;18.22;55.86;100218.78;108906;1279;139900;-60
2022/06/03 08:14:58;;;;;;;3.50;1.80;;;;;;;18.25;55.31;100219.04;109008;1279;22457;-60
2022/06/03 08:17:25;;;;;;;10.50;2.40;;;;;;;18.28;55.04;100224.48;108962;1279;139199;-61
2022/06/03 08:19:53;;;;;;;3.30;2.20;;;;;;;18.32;55.82;100223.76;109021;1279;22441;-61
2022/06/03 08:22:22;;;;;;;4.60;2.20;;;;;;;18.37;55.55;100221.16;108894;1278;138508;-60
2022/06/03 08:24:55;;;;;;;4.70;2.20;;;;;;;18.43;55.57;100225.25;109025;1279;22557;-60
2022/06/03 08:27:30;;;;;;;5.80;1.90;;;;;;;18.50;55.64;100225.92;109105;1278;22467;-60
2022/06/03 08:30:17;;;;;;;5.30;2.10;;;;;;;18.54;55.09;100220.81;108789;1279;138527;-60
2022/06/03 08:32:47;;;;;;;2.10;1.90;;;;;;;18.57;55.08;100219.91;108800;1279;22471;-61
2022/06/03 08:35:16;;;;;;;3.10;1.80;;;;;;;18.64;54.22;100221.33;108654;1278;138323;-60
2022/06/03 08:37:52;;;;;;;3.40;1.80;;;;;;;18.70;54.44;100222.98;109009;1279;22915;-61
2022/06/03 08:40:42;;;;;;;3.60;2.00;;;;;;;18.74;53.61;100226.64;108848;1279;139130;-61
2022/06/03 08:43:13;;;;;;;2.80;2.20;;;;;;;18.73;54.48;100229.36;109030;1278;23317;-61
2022/06/03 08:46:07;;;;;;;2.20;1.40;;;;;;;18.72;54.86;100232.30;108859;1278;22545;-61
2022/06/03 08:48:37;;;;;;;9.00;2.50;;;;;;;18.73;54.91;100228.09;108869;1279;138179;-61
2022/06/03 08:51:10;;;;;;;4.80;2.20;;;;;;;18.75;55.17;100231.60;109051;1279;22408;-61
2022/06/03 08:53:46;;;;;;;4.10;2.00;;;;;;;18.80;55.29;100244.38;108640;1279;138486;-61
2022/06/03 08:56:15;;;;;;;2.10;1.80;;;;;;;18.85;54.58;100242.01;109024;1278;23095;-62
2022/06/03 08:58:56;;;;;;;2.30;1.70;;;;;;;18.88;54.11;100243.14;108906;1277;139103;-62
2022/06/03 09:01:31;;;;;;;3.90;2.20;;;;;;;18.89;54.34;100236.27;108989;1279;23327;-61
2022/06/03 09:04:10;;;;;;;5.60;1.90;;;;;;;18.93;55.28;100244.59;108832;1277;23366;-62
2022/06/03 09:06:59;;;;;;;6.20;1.90;;;;;;;19.00;54.74;100245.85;109001;1277;23468;-62
2022/06/03 09:09:58;;;;;;;5.80;2.20;;;;;;;19.03;53.83;100241.56;108821;1280;22507;-62
2022/06/03 09:12:28;;;;;;;2.80;1.60;;;;;;;19.04;54.02;100245.20;108893;1278;138754;-61
2022/06/03 09:14:57;;;;;;;3.30;2.00;;;;;;;19.06;54.26;100245.09;109000;1278;23289;-62
2022/06/03 09:17:42;;;;;;;3.80;1.70;;;;;;;19.12;54.24;100242.38;108860;1280;138367;-62
2022/06/03 09:20:17;;;;;;;2.20;1.60;;;;;;;19.18;52.44;100248.70;109010;1279;23349;-62
2022/06/03 09:22:44;;;;;;;3.00;1.90;;;;;;;19.22;52.12;100250.79;108717;1277;138379;-62
2022/06/03 09:25:12;;;;;;;2.00;1.60;;;;;;;19.27;52.99;100250.62;108849;1278;22474;-62
2022/06/03 09:27:40;;;;;;;5.00;1.80;;;;;;;19.34;53.73;100253.21;108961;1280;22473;-62
2022/06/03 09:30:09;;;;;;;2.90;1.60;;;;;;;19.42;52.80;100254.89;108904;1279;138896;-62
2022/06/03 09:32:39;;;;;;;2.00;1.50;;;;;;;19.45;51.62;100250.81;108987;1279;22538;-62
2022/06/03 09:35:09;;;;;;;3.20;2.00;;;;;;;19.47;52.24;100254.39;108778;1278;138856;-62
2022/06/03 09:37:39;;;;;;;2.20;1.90;;;;;;;19.48;53.07;100250.81;108965;1280;22232;-62
2022/06/03 09:40:09;;;;;;;5.90;2.30;;;;;;;19.51;53.46;100255.27;107209;1278;24232;-62
2022/06/03 09:42:36;;;;;;;3.60;2.90;;;;;;;19.55;52.42;100255.33;108863;1277;137332;-62
2022/06/03 09:45:04;;;;;;;2.40;2.10;;;;;;;19.60;51.91;100260.44;108872;1278;22679;-62
2022/06/03 09:47:32;;;;;;;1.70;1.60;;;;;;;19.69;51.05;100260.41;108708;1279;138395;-62
2022/06/03 09:49:59;;;;;;;2.60;1.80;;;;;;;19.72;49.91;100254.13;108925;1280;22780;-63
2022/06/03 09:52:26;;;;;;;2.00;1.80;;;;;;;19.72;51.14;100250.48;108756;1278;139848;-62
2022/06/03 09:54:54;;;;;;;2.30;1.60;;;;;;;19.73;51.06;100251.06;108700;1281;22658;-61
2022/06/03 09:57:36;;;;;;;2.30;1.50;;;;;;;19.77;50.07;100253.65;108790;1278;22442;-62
2022/06/03 10:00:17;;;;;;;4.50;1.90;;;;;;;19.84;49.69;100253.54;108901;1277;138359;-61
2022/06/03 10:02:46;;;;;;;2.80;1.60;;;;;;;19.93;50.07;100258.58;108942;1278;23211;-63
2022/06/03 10:05:16;;;;;;;2.10;1.40;;;;;;;19.99;48.24;100257.11;108907;1278;138976;-63
2022/06/03 10:07:44;;;;;;;7.20;1.70;;;;;;;20.01;48.69;100256.57;108874;1277;22528;-63
2022/06/03 10:13:00;;;;;;;2.00;1.50;;;;;;;20.10;49.36;100257.30;108938;1278;22473;-63
2022/06/03 10:15:40;;;;;;;1.40;1.30;;;;;;;20.18;49.01;100257.89;108949;1278;23260;-61
2022/06/03 10:18:30;;;;;;;2.10;1.40;;;;;;;20.22;48.40;100266.81;108726;1278;138266;-62
2022/06/03 10:21:06;;;;;;;9.40;1.80;;;;;;;20.21;48.85;100261.58;108962;1278;23505;-62
2022/06/03 10:23:44;;;;;;;1.50;1.40;;;;;;;20.21;49.07;100264.43;108861;1279;138855;-62
2022/06/03 10:26:21;;;;;;;1.70;1.50;;;;;;;20.25;49.24;100264.62;109059;1277;23550;-62
2022/06/03 10:28:49;;;;;;;2.20;1.30;;;;;;;20.29;48.08;100262.73;108923;1277;138723;-62
2022/06/03 10:31:21;;;;;;;5.10;1.50;;;;;;;20.29;48.07;100257.20;108872;1278;22399;-61
2022/06/03 10:33:52;;;;;;;2.60;1.70;;;;;;;20.28;48.20;100247.25;108980;1278;22449;-62
2022/06/03 10:36:21;;;;;;;3.40;1.80;;;;;;;20.33;47.55;100247.45;108917;1277;138182;-62
2022/06/03 10:38:48;;;;;;;7.10;1.50;;;;;;;20.33;48.48;100249.48;108959;1277;22493;-62
2022/06/03 10:41:15;;;;;;;2.00;1.40;;;;;;;20.36;48.58;100254.36;108927;1277;138640;-62
2022/06/03 10:43:42;;;;;;;2.00;1.40;;;;;;;20.37;47.65;100254.74;108920;1277;23403;-63
2022/06/03 10:46:17;;;;;;;1.70;1.40;;;;;;;20.35;47.32;100250.92;108970;1277;22468;-64
2022/06/03 10:48:44;;;;;;;1.80;1.30;;;;;;;20.34;47.74;100247.08;108880;1277;22638;-62
2022/06/03 11:01:06;;;;;;;4.00;2.00;;;;;;;20.37;47.98;100239.41;108901;1278;23129;-63
2022/06/03 11:02:43;;;;;;;3.70;1.70;;;;;;;20.69;47.55;100248.81;109058;1278;23049;-63
2022/06/03 11:05:30;;;;;;;4.10;1.20;;;;;;;20.75;47.05;100247.05;109004;1278;23074;-64
2022/06/03 11:08:08;;;;;;;1.40;1.30;;;;;;;20.78;46.85;100242.73;109089;1279;23206;-63
2022/06/03 11:10:43;;;;;;;2.30;1.40;;;;;;;20.80;47.46;100243.70;109040;1277;22441;-63
2022/06/03 11:13:13;;;;;;;2.50;1.50;;;;;;;20.83;48.10;100243.15;109017;1278;23513;-62
2022/06/03 11:15:44;;;;;;;1.90;1.30;;;;;;;20.85;48.11;100247.94;109084;1278;22451;-61
2022/06/03 11:18:19;;;;;;;6.40;3.00;;;;;;;20.86;47.49;100242.89;109099;1278;22468;-63
2022/06/03 11:20:48;;;;;;;2.90;2.00;;;;;;;20.84;47.30;100235.60;109004;1277;22469;-63
2022/06/03 11:23:15;;;;;;;3.20;1.80;;;;;;;20.84;47.91;100242.58;108925;1279;22458;-63
2022/06/03 11:25:46;;;;;;;2.10;1.30;;;;;;;20.86;47.03;100240.71;108915;1278;22579;-63
2022/06/03 11:28:18;;;;;;;2.40;1.70;;;;;;;20.88;47.59;100243.52;108964;1278;22345;-63
2022/06/03 11:31:00;;;;;;;3.30;1.40;;;;;;;20.92;47.56;100238.71;108808;1278;22452;-63
2022/06/03 11:33:36;;;;;;;2.70;1.30;;;;;;;20.98;46.89;100238.20;108960;1278;23277;-62
2022/06/03 11:36:11;;;;;;;4.00;1.60;;;;;;;20.96;46.77;100229.70;108720;1279;23248;-63
2022/06/03 11:38:56;;;;;;;1.50;1.30;;;;;;;21.01;46.31;100242.77;108927;1280;22554;-62
2022/06/03 11:41:26;;;;;;;2.90;1.30;;;;;;;21.03;46.22;100239.92;108845;1278;22579;-63
2022/06/03 11:44:14;;;;;;;3.40;1.60;;;;;;;21.05;46.60;100224.52;109022;1278;22585;-62
2022/06/03 11:46:53;;;;;;;2.30;1.30;;;;;;;21.09;46.61;100225.23;108990;1277;22918;-61
2022/06/03 11:49:21;;;;;;;2.60;1.30;;;;;;;21.15;46.47;100225.56;108929;1277;22660;-62
2022/06/03 11:51:48;;;;;;;4.30;1.80;;;;;;;21.18;45.46;100228.90;108978;1277;22492;-61
2022/06/03 11:54:16;;;;;;;3.80;1.50;;;;;;;21.17;46.12;100225.09;109049;1279;22658;-62
2022/06/03 11:56:44;;;;;;;3.40;1.50;;;;;;;21.19;45.84;100221.70;106375;1279;22980;-61
2022/06/03 11:59:52;;;;;;;1.50;1.30;;;;;;;21.20;46.09;100218.91;104978;1280;26547;-61
2022/06/03 12:02:39;;;;;;;1.40;1.30;;;;;;;21.23;46.70;100217.39;104802;1278;22551;-61
2022/06/03 12:05:17;;;;;;;1.70;1.40;;;;;;;21.23;45.94;100208.55;108974;1279;22656;-62
2022/06/03 12:07:55;;;;;;;3.00;1.50;;;;;;;21.21;45.85;100209.67;109003;1279;22502;-62
2022/06/03 12:10:45;;;;;;;2.60;1.50;;;;;;;21.16;45.96;100208.09;109002;1278;22630;-62
2022/06/03 12:13:18;;;;;;;2.10;1.40;;;;;;;21.14;45.79;100206.42;108979;1277;22551;-63
2022/06/03 12:15:54;;;;;;;3.10;1.70;;;;;;;21.12;46.17;100205.58;109011;1277;22459;-62
2022/06/03 12:18:39;;;;;;;2.60;1.40;;;;;;;21.12;46.45;100210.40;109103;1278;22473;-62
2022/06/03 12:21:13;;;;;;;3.10;1.90;;;;;;;21.12;46.70;100205.77;108938;1278;22461;-62
2022/06/03 12:23:43;;;;;;;4.30;1.60;;;;;;;21.16;46.92;100206.16;109038;1279;22500;-61
2022/06/03 12:26:16;;;;;;;3.30;1.80;;;;;;;21.20;46.50;100200.39;109006;1278;22566;-62
2022/06/03 12:28:45;;;;;;;2.00;1.50;;;;;;;21.22;46.58;100198.48;109027;1278;23635;-63
2022/06/03 12:31:15;;;;;;;3.50;1.70;;;;;;;21.23;46.17;100203.78;108855;1278;22473;-64
2022/06/03 12:33:48;;;;;;;4.50;1.60;;;;;;;21.26;46.47;100203.14;108961;1277;22448;-62
2022/06/03 12:36:36;;;;;;;1.40;1.30;;;;;;;21.30;46.18;100202.83;108975;1279;22488;-61
2022/06/03 12:39:08;;;;;;;54.90;40.80;;;;;;;21.32;45.67;100195.56;108496;1279;138866;-63
2022/06/03 12:41:45;;;;;;;4.00;2.50;;;;;;;21.33;46.08;100199.98;108862;1278;22487;-63
2022/06/03 12:44:50;;;;;;;3.10;1.60;;;;;;;21.35;45.31;100192.25;108777;1279;137749;-62
2022/06/03 12:47:22;;;;;;;1.40;1.30;;;;;;;21.37;45.04;100192.95;108950;1279;22229;-62
2022/06/03 12:49:54;;;;;;;1.30;1.20;;;;;;;21.36;45.85;100196.50;108888;1279;22469;-62
2022/06/03 12:52:22;;;;;;;1.30;1.20;;;;;;;21.37;45.40;100190.70;108727;1279;137815;-62
2022/06/03 12:54:55;;;;;;;1.60;1.50;;;;;;;21.37;45.42;100192.43;108870;1279;24564;-62